createdAt,value
2019-03-12T00:21:35.340Z,5.70
2019-03-12T00:30:28.284Z,6.73
2019-03-12T00:36:50.495Z,7.80
2019-03-12T00:39:24.701Z,6.47
2019-03-12T02:38:14.996Z,11.77
2019-03-12T02:47:06.618Z,11.60
2019-03-12T02:53:00.345Z,13.03
2019-03-12T03:02:02.673Z,12.03
2019-03-12T03:19:04.678Z,12.63
2019-03-12T03:21:38.117Z,11.63
2019-03-12T03:30:13.240Z,11.63
2019-03-12T03:32:42.001Z,13.23
2019-03-12T03:35:10.730Z,13.07
2019-03-12T03:37:39.647Z,11.87
2019-03-12T03:40:08.573Z,12.27
2019-03-12T03:42:37.280Z,11.80
2019-03-12T03:45:08.322Z,13.60
2019-03-12T03:47:37.049Z,12.23
2019-03-12T03:50:08.059Z,10.97
2019-03-12T03:52:36.798Z,12.90
2019-03-12T03:55:09.047Z,14.17
2019-03-12T03:57:37.850Z,15.47
2019-03-12T04:00:10.931Z,13.47
2019-03-12T04:02:39.602Z,12.83
2019-03-12T04:05:08.840Z,12.70
2019-03-12T04:07:37.512Z,15.07
2019-03-12T04:10:08.905Z,12.47
2019-03-12T04:12:37.634Z,12.90
2019-03-12T04:15:09.377Z,14.00
2019-03-12T04:17:38.257Z,13.70
2019-03-12T04:20:10.447Z,13.10
2019-03-12T04:22:39.218Z,14.30
2019-03-12T04:25:09.396Z,12.90
2019-03-12T04:27:38.216Z,13.03
2019-03-12T04:30:11.847Z,11.53
2019-03-12T04:32:40.372Z,11.53
2019-03-12T04:35:11.965Z,13.13
2019-03-12T04:37:40.698Z,11.87
2019-03-12T04:40:11.902Z,11.07
2019-03-12T04:42:40.665Z,12.40
2019-03-12T04:45:12.320Z,12.83
2019-03-12T04:47:41.150Z,12.40
2019-03-12T04:50:10.102Z,11.60
2019-03-12T04:52:38.828Z,11.40
2019-03-12T04:55:10.625Z,10.47
2019-03-12T04:57:39.296Z,12.87
2019-03-12T05:00:10.863Z,11.27
2019-03-12T05:02:39.537Z,13.17
2019-03-12T05:05:08.625Z,12.27
2019-03-12T05:07:37.356Z,12.60
2019-03-12T05:10:08.912Z,11.63
2019-03-12T05:12:37.666Z,12.50
2019-03-12T05:15:09.254Z,13.40
2019-03-12T05:17:37.865Z,12.90
2019-03-12T05:20:09.421Z,11.17
2019-03-12T05:22:38.178Z,13.20
2019-03-12T05:25:10.370Z,12.67
2019-03-12T05:27:39.099Z,13.43
2019-03-12T05:30:10.797Z,13.27
2019-03-12T05:32:39.733Z,11.10
2019-03-12T05:35:08.533Z,11.37
2019-03-12T05:37:37.256Z,11.60
2019-03-12T05:40:09.010Z,12.00
2019-03-12T05:42:37.767Z,12.03
2019-03-12T05:45:09.638Z,11.00
2019-03-12T05:47:38.454Z,11.60
2019-03-12T05:50:09.766Z,13.40
2019-03-12T05:52:38.669Z,12.13
2019-03-12T05:55:08.859Z,10.83
2019-03-12T05:57:37.630Z,11.73
2019-03-12T06:00:09.289Z,12.80
2019-03-12T06:02:38.179Z,10.00
2019-03-12T06:05:07.508Z,9.83
2019-03-12T06:07:36.189Z,9.47
2019-03-12T06:10:07.833Z,10.57
2019-03-12T06:12:36.561Z,9.53
2019-03-12T06:15:08.103Z,8.97
2019-03-12T06:17:36.771Z,10.37
2019-03-12T06:20:08.297Z,9.57
2019-03-12T06:22:36.904Z,8.20
2019-03-12T06:25:06.284Z,8.43
2019-03-12T06:27:35.093Z,8.00
2019-03-12T06:30:05.282Z,7.90
2019-03-12T06:32:35.698Z,7.30
2019-03-12T06:35:07.354Z,7.90
2019-03-12T06:37:37.620Z,6.27
2019-03-12T06:40:09.643Z,6.50
2019-03-12T06:42:41.342Z,6.83
2019-03-12T06:45:13.554Z,5.90
2019-03-12T06:47:46.424Z,6.60
2019-03-12T06:50:15.971Z,5.83
2019-03-12T06:52:46.252Z,5.33
2019-03-12T06:55:16.540Z,7.40
2019-03-12T06:57:49.735Z,5.53
2019-03-12T07:00:20.161Z,6.40
2019-03-12T07:02:50.487Z,5.40
2019-03-12T07:05:24.043Z,5.70
2019-03-12T07:07:53.869Z,5.83
2019-03-12T07:10:24.255Z,5.47
2019-03-12T07:12:54.812Z,5.43
2019-03-12T07:15:24.569Z,5.20
2019-03-12T07:17:54.925Z,5.43
2019-03-12T07:20:25.526Z,5.00
2019-03-12T07:22:55.855Z,4.80
2019-03-12T07:25:26.170Z,4.40
2019-03-12T07:27:56.510Z,4.20
2019-03-12T07:30:28.660Z,3.60
2019-03-12T07:32:59.174Z,3.50
2019-03-12T07:35:29.678Z,8.13
2019-03-12T07:37:58.471Z,4.90
2019-03-12T07:40:28.841Z,4.37
2019-03-12T07:42:59.169Z,3.83
2019-03-12T07:45:29.601Z,3.60
2019-03-12T07:48:00.441Z,4.50
2019-03-12T07:50:30.816Z,4.87
2019-03-12T07:53:01.179Z,2.80
2019-03-12T07:55:31.553Z,4.13
2019-03-12T07:58:02.018Z,2.93
2019-03-12T08:00:32.320Z,2.80
2019-03-12T08:03:02.719Z,2.90
2019-03-12T08:05:33.058Z,3.00
2019-03-12T08:08:03.422Z,2.80
2019-03-12T08:10:34.046Z,3.73
2019-03-12T08:13:02.852Z,2.67
2019-03-12T08:15:33.227Z,3.30
2019-03-12T08:18:03.484Z,2.67
2019-03-12T08:20:33.801Z,2.90
2019-03-12T08:23:04.067Z,4.60
2019-03-12T08:25:34.454Z,3.03
2019-03-12T08:28:04.857Z,3.13
2019-03-12T08:30:35.333Z,3.23
2019-03-12T08:33:05.653Z,2.50
2019-03-12T08:35:35.969Z,2.03
2019-03-12T08:38:06.304Z,3.53
2019-03-12T08:40:36.655Z,2.80
2019-03-12T08:43:07.029Z,2.40
2019-03-12T08:45:37.325Z,2.37
2019-03-12T08:48:07.144Z,2.70
2019-03-12T08:50:37.497Z,3.77
2019-03-12T08:53:11.641Z,2.37
2019-03-12T08:55:41.922Z,2.10
2019-03-12T08:58:10.661Z,2.53
2019-03-12T09:00:40.760Z,2.57
2019-03-12T09:03:11.134Z,2.30
2019-03-12T09:05:41.467Z,2.97
2019-03-12T09:08:11.791Z,3.03
2019-03-12T09:10:42.200Z,3.23
2019-03-12T09:13:10.959Z,3.00
2019-03-12T09:15:41.273Z,2.30
2019-03-12T09:18:11.628Z,2.50
2019-03-12T09:20:41.932Z,3.23
2019-03-12T09:23:12.374Z,2.73
2019-03-12T09:25:42.686Z,2.57
2019-03-12T09:28:13.065Z,2.47
2019-03-12T09:30:43.848Z,2.63
2019-03-12T09:33:14.216Z,2.40
2019-03-12T09:35:44.519Z,2.70
2019-03-12T09:38:14.813Z,2.30
2019-03-12T09:40:45.080Z,2.67
2019-03-12T09:43:15.426Z,3.10
2019-03-12T09:45:45.221Z,2.60
2019-03-12T09:48:15.611Z,3.00
2019-03-12T09:50:45.865Z,2.50
2019-03-12T09:53:16.308Z,2.43
2019-03-12T09:55:46.226Z,2.40
2019-03-12T09:58:16.233Z,2.23
2019-03-12T10:00:46.604Z,3.00
2019-03-12T10:03:16.935Z,2.23
2019-03-12T10:05:47.207Z,2.20
2019-03-12T10:08:17.483Z,2.77
2019-03-12T10:10:47.842Z,2.70
2019-03-12T10:13:18.177Z,2.90
2019-03-12T10:15:48.532Z,3.10
2019-03-12T10:18:18.845Z,2.83
2019-03-12T10:20:49.193Z,3.27
2019-03-12T10:23:19.560Z,2.33
2019-03-12T10:25:51.336Z,1.87
2019-03-12T10:28:21.662Z,2.60
2019-03-12T10:30:51.485Z,2.50
2019-03-12T10:33:21.942Z,3.97
2019-03-12T10:35:52.296Z,3.13
2019-03-12T10:38:25.503Z,2.20
2019-03-12T10:40:55.842Z,2.00
2019-03-12T10:43:26.170Z,2.40
2019-03-12T10:45:56.644Z,2.33
2019-03-12T10:48:25.588Z,2.00
2019-03-12T10:50:54.298Z,2.00
2019-03-12T10:53:23.104Z,2.10
2019-03-12T10:55:51.949Z,2.97
2019-03-12T10:58:20.674Z,2.50
2019-03-12T11:00:49.453Z,2.40
2019-03-12T11:03:18.464Z,3.30
2019-03-12T11:05:47.249Z,2.90
2019-03-12T11:08:16.021Z,2.43
2019-03-12T11:10:44.738Z,3.30
2019-03-12T11:13:14.845Z,3.63
2019-03-12T11:15:43.931Z,2.87
2019-03-12T11:18:12.718Z,2.80
2019-03-12T11:20:41.433Z,2.67
2019-03-12T11:23:10.225Z,3.67
2019-03-12T11:25:38.973Z,2.70
2019-03-12T11:28:07.795Z,3.00
2019-03-12T11:30:36.781Z,3.00
2019-03-12T11:33:05.819Z,3.30
2019-03-12T11:35:39.138Z,3.33
2019-03-12T11:38:05.179Z,2.67
2019-03-12T11:40:34.096Z,2.43
2019-03-12T11:43:02.886Z,2.80
2019-03-12T11:45:36.806Z,3.70
2019-03-12T11:48:02.282Z,1.80
2019-03-12T11:50:31.231Z,2.00
2019-03-12T11:53:00.868Z,2.30
2019-03-12T11:55:30.009Z,2.00
2019-03-12T11:57:58.810Z,2.10
2019-03-12T12:00:29.315Z,2.20
2019-03-12T12:03:00.225Z,1.83
2019-03-12T12:05:29.248Z,2.13
2019-03-12T12:07:58.102Z,2.60
2019-03-12T12:10:26.852Z,2.27
2019-03-12T12:12:55.773Z,2.43
2019-03-12T12:15:24.599Z,2.13
2019-03-12T12:17:53.357Z,2.07
2019-03-12T12:20:29.403Z,2.27
2019-03-12T12:22:52.604Z,2.03
2019-03-12T12:25:21.549Z,2.33
2019-03-12T12:27:50.283Z,2.30
2019-03-12T12:30:21.897Z,1.77
2019-03-12T12:32:50.628Z,1.47
2019-03-12T12:35:19.718Z,2.03
2019-03-12T12:37:48.425Z,1.83
2019-03-12T12:40:18.509Z,2.33
2019-03-12T12:42:47.249Z,2.23
2019-03-12T12:45:18.853Z,1.67
2019-03-12T12:47:47.606Z,1.63
2019-03-12T12:50:16.929Z,2.27
2019-03-12T12:52:45.683Z,2.17
2019-03-12T12:55:15.392Z,2.10
2019-03-12T12:57:44.157Z,2.27
2019-03-12T13:00:15.760Z,2.30
2019-03-12T13:02:44.520Z,1.80
2019-03-12T13:05:14.994Z,2.03
2019-03-12T13:07:43.781Z,1.70
2019-03-12T13:10:15.641Z,2.20
2019-03-12T13:12:46.423Z,2.07
2019-03-12T13:15:15.211Z,1.70
2019-03-12T13:17:44.195Z,2.23
2019-03-12T13:20:13.310Z,1.43
2019-03-12T13:22:42.088Z,1.60
2019-03-12T13:25:13.624Z,2.03
2019-03-12T13:27:43.345Z,1.80
2019-03-12T13:30:15.142Z,2.13
2019-03-12T13:32:44.109Z,1.80
2019-03-12T13:35:15.106Z,1.80
2019-03-12T13:37:43.890Z,2.30
2019-03-12T13:40:15.559Z,2.33
2019-03-12T13:42:44.431Z,3.00
2019-03-12T13:45:15.700Z,1.63
2019-03-12T13:47:44.537Z,1.60
2019-03-12T13:50:13.859Z,1.80
2019-03-12T13:52:43.274Z,2.50
2019-03-12T13:55:14.611Z,2.27
2019-03-12T13:57:43.765Z,2.77
2019-03-12T14:00:15.306Z,2.10
2019-03-12T14:02:44.867Z,2.00
2019-03-12T14:05:14.076Z,2.20
2019-03-12T14:07:42.960Z,1.83
2019-03-12T14:10:14.497Z,1.80
2019-03-12T14:12:43.845Z,1.93
2019-03-12T14:15:15.429Z,1.50
2019-03-12T14:17:44.323Z,2.90
2019-03-12T14:20:15.923Z,2.33
2019-03-12T14:22:44.639Z,2.50
2019-03-12T14:25:13.405Z,1.97
2019-03-12T14:27:42.115Z,1.87
2019-03-12T14:30:11.283Z,1.20
2019-03-12T14:32:39.911Z,1.83
2019-03-12T14:35:10.146Z,2.03
2019-03-12T14:37:38.857Z,2.43
2019-03-12T14:40:08.148Z,2.57
2019-03-12T14:42:36.984Z,1.83
2019-03-12T14:45:08.536Z,1.73
2019-03-12T14:47:37.233Z,1.70
2019-03-12T14:50:08.836Z,2.33
2019-03-12T14:52:37.688Z,1.73
2019-03-12T14:55:07.242Z,1.97
2019-03-12T14:57:36.085Z,1.70
2019-03-12T15:00:07.594Z,1.93
2019-03-12T15:02:36.390Z,1.43
2019-03-12T15:05:07.776Z,1.90
2019-03-12T15:07:36.749Z,2.30
2019-03-12T15:10:08.819Z,1.67
2019-03-12T15:12:37.639Z,1.93
2019-03-12T15:15:09.213Z,1.63
2019-03-12T15:17:38.003Z,1.97
2019-03-12T15:20:09.571Z,1.60
2019-03-12T15:22:38.455Z,2.57
2019-03-12T15:25:10.028Z,1.73
2019-03-12T15:27:42.581Z,2.00
2019-03-12T15:30:15.571Z,2.30
2019-03-12T15:32:44.584Z,2.50
2019-03-12T15:35:13.514Z,2.30
2019-03-12T15:37:42.257Z,2.00
2019-03-12T15:40:12.643Z,2.07
2019-03-12T15:42:41.468Z,1.97
2019-03-12T15:45:13.347Z,2.10
2019-03-12T15:47:42.210Z,2.23
2019-03-12T15:50:13.496Z,1.50
2019-03-12T15:52:44.465Z,1.63
2019-03-12T15:55:13.444Z,1.70
2019-03-12T15:57:43.383Z,1.80
2019-03-12T16:00:14.863Z,1.90
2019-03-12T16:02:43.676Z,2.23
2019-03-12T16:05:12.720Z,1.97
2019-03-12T16:07:41.587Z,2.20
2019-03-12T16:10:13.538Z,2.67
2019-03-12T16:12:42.298Z,2.10
2019-03-12T16:15:13.078Z,2.83
2019-03-12T16:17:41.922Z,2.00
2019-03-12T16:20:13.209Z,1.80
2019-03-12T16:22:41.967Z,2.17
2019-03-12T16:25:10.883Z,2.37
2019-03-12T16:27:39.667Z,1.53
2019-03-12T16:30:11.848Z,2.43
2019-03-12T16:32:40.670Z,1.73
2019-03-12T16:35:10.033Z,2.83
2019-03-12T16:37:38.723Z,2.10
2019-03-12T16:40:10.264Z,2.20
2019-03-12T16:42:39.009Z,2.00
2019-03-12T16:45:10.643Z,1.60
2019-03-12T16:47:39.657Z,1.70
2019-03-12T16:50:10.865Z,1.80
2019-03-12T16:52:39.645Z,1.40
2019-03-12T16:55:10.677Z,1.80
2019-03-12T16:57:39.428Z,1.50
2019-03-12T17:00:11.223Z,2.20
2019-03-12T17:02:40.245Z,2.00
2019-03-12T17:05:10.859Z,1.80
2019-03-12T17:07:39.836Z,1.60
2019-03-12T17:10:11.121Z,1.93
2019-03-12T17:12:39.895Z,1.70
2019-03-12T17:15:11.451Z,1.80
2019-03-12T17:17:40.113Z,1.33
2019-03-12T17:20:11.692Z,2.07
2019-03-12T17:22:40.463Z,1.93
2019-03-12T17:25:12.453Z,1.73
2019-03-12T17:27:44.099Z,1.80
2019-03-12T17:30:15.841Z,1.47
2019-03-12T17:32:44.663Z,1.30
2019-03-12T17:35:16.293Z,1.80
2019-03-12T17:37:45.050Z,1.40
2019-03-12T17:40:16.675Z,1.30
2019-03-12T17:42:45.411Z,1.73
2019-03-12T17:45:14.697Z,1.30
2019-03-12T17:47:44.960Z,1.70
2019-03-12T17:50:14.698Z,1.87
2019-03-12T17:52:43.508Z,1.87
2019-03-12T17:55:14.612Z,1.33
2019-03-12T17:57:43.608Z,1.43
2019-03-12T18:00:15.333Z,1.83
2019-03-12T18:02:44.165Z,1.33
2019-03-12T18:05:14.348Z,1.70
2019-03-12T18:07:43.564Z,1.30
2019-03-12T18:10:14.421Z,1.30
2019-03-12T18:12:43.291Z,1.90
2019-03-12T18:15:14.915Z,1.67
2019-03-12T18:17:43.908Z,2.20
2019-03-12T18:20:15.130Z,1.87
2019-03-12T18:22:43.964Z,1.50
2019-03-12T18:25:15.521Z,1.40
2019-03-12T18:27:44.346Z,1.97
2019-03-12T18:30:15.890Z,1.40
2019-03-12T18:32:45.187Z,1.90
2019-03-12T18:35:14.795Z,1.60
2019-03-12T18:37:43.909Z,1.63
2019-03-12T18:40:15.464Z,1.47
2019-03-12T18:42:45.535Z,1.60
2019-03-12T18:45:17.017Z,1.30
2019-03-12T18:47:45.921Z,1.43
2019-03-12T18:50:16.262Z,1.13
2019-03-12T18:52:45.090Z,1.10
2019-03-12T18:55:16.670Z,2.20
2019-03-12T18:57:45.557Z,1.73
2019-03-12T19:00:14.589Z,1.03
2019-03-12T19:02:44.658Z,1.60
2019-03-12T19:05:13.801Z,1.20
2019-03-12T19:07:42.821Z,1.33
2019-03-12T19:10:13.144Z,1.10
2019-03-12T19:12:42.047Z,1.33
2019-03-12T19:15:12.496Z,1.20
2019-03-12T19:17:41.340Z,1.20
2019-03-12T19:20:15.359Z,1.00
2019-03-12T19:22:44.320Z,1.30
2019-03-12T19:25:16.076Z,1.60
2019-03-12T19:27:44.866Z,1.40
2019-03-12T19:30:16.007Z,1.70
2019-03-12T19:32:46.391Z,1.20
2019-03-12T19:35:17.177Z,1.40
2019-03-12T19:37:46.084Z,1.33
2019-03-12T19:40:17.833Z,1.57
2019-03-12T19:42:46.836Z,1.80
2019-03-12T19:45:15.682Z,1.70
2019-03-12T19:47:44.482Z,1.40
2019-03-12T19:50:16.256Z,1.90
2019-03-12T19:52:45.202Z,1.43
2019-03-12T19:55:17.493Z,1.47
2019-03-12T19:57:46.332Z,1.57
2019-03-12T20:00:18.219Z,1.73
2019-03-12T20:02:48.449Z,1.40
2019-03-12T20:05:17.495Z,1.20
2019-03-12T20:07:46.499Z,1.40
2019-03-12T20:10:18.368Z,1.10
2019-03-12T20:12:48.338Z,1.90
2019-03-12T20:15:20.026Z,1.47
2019-03-12T20:17:51.519Z,2.27
2019-03-12T20:20:23.122Z,1.70
2019-03-12T20:22:54.110Z,1.20
2019-03-12T20:25:25.771Z,2.60
2019-03-12T20:27:57.330Z,6.73
2019-03-12T20:30:29.351Z,5.13
2019-03-12T20:32:59.464Z,1.40
2019-03-12T20:35:31.082Z,2.77
2019-03-12T20:38:02.903Z,1.70
2019-03-12T20:40:34.422Z,1.90
2019-03-12T20:43:06.053Z,2.00
2019-03-12T20:45:37.858Z,1.53
2019-03-12T20:48:09.602Z,1.40
2019-03-12T20:50:41.316Z,1.80
2019-03-12T20:53:12.892Z,1.63
2019-03-12T20:55:44.584Z,1.43
2019-03-12T20:58:16.175Z,2.13
2019-03-12T21:00:47.825Z,2.07
2019-03-12T21:03:19.472Z,1.97
2019-03-12T21:05:50.968Z,1.90
2019-03-12T21:08:20.958Z,1.97
2019-03-12T21:10:52.518Z,1.80
2019-03-12T21:13:24.074Z,2.10
2019-03-12T21:15:54.030Z,1.80
2019-03-12T21:18:25.619Z,2.37
2019-03-12T21:20:57.182Z,2.00
2019-03-12T21:23:28.727Z,1.70
2019-03-12T21:26:00.435Z,1.63
2019-03-12T21:28:31.587Z,2.10
2019-03-12T21:31:00.803Z,1.70
2019-03-12T21:33:30.655Z,1.53
2019-03-12T21:35:59.614Z,2.00
2019-03-12T21:38:28.501Z,1.83
2019-03-12T21:40:57.269Z,2.07
2019-03-12T21:43:26.071Z,1.90
2019-03-12T21:45:54.788Z,1.70
2019-03-12T21:48:23.551Z,1.73
2019-03-12T21:50:52.433Z,1.77
2019-03-12T21:53:21.274Z,1.67
2019-03-12T21:55:50.103Z,2.17
2019-03-12T21:58:19.347Z,1.50
2019-03-12T22:00:48.200Z,0.90
2019-03-12T22:03:16.928Z,1.00
2019-03-12T22:05:45.838Z,0.73
2019-03-12T22:08:14.702Z,0.60
2019-03-12T22:10:43.436Z,1.00
2019-03-12T22:13:12.437Z,1.00
2019-03-12T22:15:41.263Z,0.70
2019-03-12T22:18:10.028Z,1.20
2019-03-12T22:20:38.752Z,1.43
2019-03-12T22:23:09.126Z,1.03
2019-03-12T22:25:37.966Z,0.83
2019-03-12T22:28:06.771Z,1.13
2019-03-12T22:30:35.609Z,1.40
2019-03-12T22:33:04.783Z,1.23
2019-03-12T22:35:33.584Z,1.27
2019-03-12T22:38:02.402Z,1.43
2019-03-12T22:40:31.233Z,1.50
2019-03-12T22:42:59.985Z,1.47
2019-03-12T22:45:28.834Z,2.67
2019-03-12T22:47:57.531Z,2.40
2019-03-12T22:50:26.252Z,2.57
2019-03-12T22:52:55.063Z,2.23
2019-03-12T22:55:23.902Z,2.53
2019-03-12T22:57:52.642Z,2.53
2019-03-12T23:00:22.077Z,2.63
2019-03-12T23:02:50.902Z,3.73
2019-03-12T23:05:19.879Z,4.00
2019-03-12T23:07:48.623Z,3.70
2019-03-12T23:10:18.467Z,4.83
2019-03-12T23:12:47.673Z,5.13
2019-03-12T23:15:18.225Z,5.30
2019-03-12T23:17:47.107Z,5.40
2019-03-12T23:20:17.769Z,5.27
2019-03-12T23:22:46.820Z,5.73
2019-03-12T23:25:15.781Z,6.80
2019-03-12T23:27:44.649Z,5.53
2019-03-12T23:30:16.687Z,5.83
2019-03-12T23:32:45.425Z,6.03
2019-03-12T23:35:14.748Z,6.23
2019-03-12T23:37:43.667Z,6.00
2019-03-12T23:40:15.163Z,6.23
2019-03-12T23:42:44.106Z,5.20
2019-03-12T23:45:14.881Z,5.27
2019-03-12T23:47:44.096Z,4.37
2019-03-12T23:50:14.705Z,5.77
2019-03-12T23:52:43.538Z,5.13
2019-03-12T23:55:14.049Z,4.83
2019-03-12T23:57:43.363Z,4.10
